createdAt,value
2023-04-17T00:00:12.279Z,8.56
2023-04-17T00:01:15.077Z,8.50
2023-04-17T00:02:18.020Z,8.50
2023-04-17T00:03:54.072Z,8.50
2023-04-17T00:04:58.766Z,8.50
2023-04-17T00:06:02.113Z,8.44
2023-04-17T00:07:36.937Z,8.38
2023-04-17T00:08:39.805Z,8.38
2023-04-17T00:09:42.698Z,8.38
2023-04-17T00:11:20.281Z,8.38
2023-04-17T00:12:23.308Z,8.38
2023-04-17T00:13:26.275Z,8.38
2023-04-17T00:15:01.056Z,8.38
2023-04-17T00:16:03.849Z,8.38
2023-04-17T00:17:07.146Z,8.38
2023-04-17T00:18:41.890Z,8.38
2023-04-17T00:19:45.201Z,8.38
2023-04-17T00:20:47.998Z,8.38
2023-04-17T00:22:22.432Z,8.31
2023-04-17T00:23:25.253Z,8.31
2023-04-17T00:24:28.012Z,8.31
2023-04-17T00:26:02.776Z,8.38
2023-04-17T00:27:05.721Z,8.38
2023-04-17T00:28:08.601Z,8.38
2023-04-17T00:29:43.251Z,8.38
2023-04-17T00:30:46.270Z,8.38
2023-04-17T00:31:49.228Z,8.38
2023-04-17T00:33:24.364Z,8.44
2023-04-17T00:34:27.331Z,8.44
2023-04-17T00:35:30.897Z,8.44
2023-04-17T00:37:05.295Z,8.44
2023-04-17T00:38:08.056Z,8.44
2023-04-17T00:39:11.132Z,8.44
2023-04-17T00:40:46.025Z,8.44
2023-04-17T00:41:48.996Z,8.44
2023-04-17T00:42:51.976Z,8.44
2023-04-17T00:44:26.805Z,8.44
2023-04-17T00:45:29.795Z,8.44
2023-04-17T00:46:33.225Z,8.38
2023-04-17T00:48:07.985Z,8.25
2023-04-17T00:49:11.055Z,8.25
2023-04-17T00:50:13.958Z,8.19
2023-04-17T00:51:48.506Z,8.19
2023-04-17T00:52:51.238Z,8.19
2023-04-17T00:53:54.069Z,8.25
2023-04-17T00:55:28.593Z,8.25
2023-04-17T00:56:31.448Z,8.25
2023-04-17T00:57:34.294Z,8.25
2023-04-17T00:59:08.956Z,8.25
2023-04-17T01:00:11.238Z,8.25
2023-04-17T01:01:14.208Z,8.19
2023-04-17T01:02:17.776Z,8.19
2023-04-17T01:03:54.337Z,8.13
2023-04-17T01:04:58.801Z,8.06
2023-04-17T01:06:01.730Z,8.06
2023-04-17T01:07:36.382Z,8.13
2023-04-17T01:08:39.060Z,8.13
2023-04-17T01:09:41.928Z,8.13
2023-04-17T01:11:16.594Z,8.13
2023-04-17T01:12:19.387Z,8.13
2023-04-17T01:13:22.300Z,8.19
2023-04-17T01:14:56.931Z,8.13
2023-04-17T01:15:59.844Z,8.13
2023-04-17T01:17:02.949Z,8.13
2023-04-17T01:18:38.123Z,8.13
2023-04-17T01:19:41.151Z,8.13
2023-04-17T01:20:44.121Z,8.19
2023-04-17T01:22:18.812Z,8.19
2023-04-17T01:23:21.682Z,8.19
2023-04-17T01:24:24.575Z,8.19
2023-04-17T01:25:59.106Z,8.19
2023-04-17T01:27:01.886Z,8.19
2023-04-17T01:28:04.748Z,8.19
2023-04-17T01:29:39.217Z,8.19
2023-04-17T01:30:42.249Z,8.19
2023-04-17T01:31:45.688Z,8.19
2023-04-17T01:33:20.838Z,8.19
2023-04-17T01:34:23.641Z,8.19
2023-04-17T01:35:29.555Z,8.19
2023-04-17T01:37:04.366Z,8.19
2023-04-17T01:38:07.242Z,8.13
2023-04-17T01:39:10.331Z,8.13
2023-04-17T01:40:44.913Z,8.13
2023-04-17T01:41:47.632Z,8.13
2023-04-17T01:42:50.518Z,8.13
2023-04-17T01:44:25.140Z,8.06
2023-04-17T01:45:27.949Z,8.06
2023-04-17T01:46:30.986Z,8.13
2023-04-17T01:48:05.958Z,8.06
2023-04-17T01:49:09.042Z,8.06
2023-04-17T01:50:12.061Z,8.06
2023-04-17T01:51:46.826Z,8.13
2023-04-17T01:52:49.735Z,8.13
2023-04-17T01:53:52.618Z,8.13
2023-04-17T01:55:27.383Z,8.13
2023-04-17T01:56:30.275Z,8.13
2023-04-17T01:57:33.074Z,8.13
2023-04-17T01:59:07.689Z,8.13
2023-04-17T02:00:12.522Z,8.13
2023-04-17T02:01:15.436Z,8.13
2023-04-17T02:02:18.703Z,8.13
2023-04-17T02:03:54.564Z,8.13
2023-04-17T02:04:58.853Z,8.06
2023-04-17T02:06:01.791Z,8.13
2023-04-17T02:07:36.389Z,8.06
2023-04-17T02:08:39.279Z,8.06
2023-04-17T02:09:42.167Z,8.00
2023-04-17T02:11:17.311Z,8.00
2023-04-17T02:12:20.191Z,8.00
2023-04-17T02:13:22.979Z,8.00
2023-04-17T02:14:57.459Z,8.00
2023-04-17T02:16:00.334Z,8.00
2023-04-17T02:17:03.614Z,8.00
2023-04-17T02:18:38.275Z,8.00
2023-04-17T02:19:41.082Z,8.00
2023-04-17T02:20:43.960Z,8.00
2023-04-17T02:22:18.800Z,8.00
2023-04-17T02:23:21.705Z,8.00
2023-04-17T02:24:24.686Z,8.00
2023-04-17T02:25:59.472Z,8.00
2023-04-17T02:27:02.528Z,8.00
2023-04-17T02:28:05.383Z,8.06
2023-04-17T02:29:39.952Z,8.00
2023-04-17T02:30:42.671Z,8.00
2023-04-17T02:31:45.821Z,8.00
2023-04-17T02:33:20.489Z,8.00
2023-04-17T02:34:23.406Z,8.00
2023-04-17T02:35:26.238Z,7.94
2023-04-17T02:37:00.798Z,7.94
2023-04-17T02:38:03.491Z,7.94
2023-04-17T02:39:06.365Z,7.94
2023-04-17T02:40:41.624Z,8.00
2023-04-17T02:41:44.604Z,8.00
2023-04-17T02:42:47.589Z,8.00
2023-04-17T02:44:22.474Z,8.00
2023-04-17T02:45:25.325Z,7.94
2023-04-17T02:46:28.308Z,7.94
2023-04-17T02:48:03.523Z,7.94
2023-04-17T02:49:06.350Z,7.88
2023-04-17T02:50:09.645Z,7.88
2023-04-17T02:51:44.219Z,7.94
2023-04-17T02:52:47.077Z,7.94
2023-04-17T02:53:49.768Z,7.94
2023-04-17T02:55:24.370Z,7.94
2023-04-17T02:56:27.314Z,7.94
2023-04-17T02:57:30.439Z,7.94
2023-04-17T02:59:05.155Z,7.94
2023-04-17T03:00:12.033Z,7.88
2023-04-17T03:01:15.083Z,7.88
2023-04-17T03:02:18.563Z,7.88
2023-04-17T03:03:54.850Z,7.88
2023-04-17T03:04:58.843Z,7.81
2023-04-17T03:06:01.618Z,7.88
2023-04-17T03:07:36.336Z,7.81
2023-04-17T03:08:39.252Z,7.88
2023-04-17T03:09:42.152Z,7.88
2023-04-17T03:11:16.816Z,7.88
2023-04-17T03:12:19.740Z,7.88
2023-04-17T03:13:22.704Z,7.88
2023-04-17T03:14:57.671Z,7.88
2023-04-17T03:16:00.919Z,7.88
2023-04-17T03:17:04.433Z,7.88
2023-04-17T03:18:39.451Z,7.88
2023-04-17T03:19:42.353Z,7.88
2023-04-17T03:20:45.235Z,7.88
2023-04-17T03:22:19.867Z,7.88
2023-04-17T03:23:22.740Z,7.88
2023-04-17T03:24:25.464Z,7.88
2023-04-17T03:25:59.994Z,7.88
2023-04-17T03:27:02.754Z,7.81
2023-04-17T03:28:05.665Z,7.81
2023-04-17T03:29:40.526Z,7.81
2023-04-17T03:30:43.325Z,7.81
2023-04-17T03:31:46.407Z,7.81
2023-04-17T03:33:21.875Z,7.81
2023-04-17T03:34:24.786Z,7.81
2023-04-17T03:35:27.657Z,7.81
2023-04-17T03:37:02.370Z,7.81
2023-04-17T03:38:05.067Z,7.81
2023-04-17T03:39:07.851Z,7.81
2023-04-17T03:40:43.087Z,7.81
2023-04-17T03:41:45.892Z,7.81
2023-04-17T03:42:48.815Z,7.81
2023-04-17T03:44:23.430Z,7.81
2023-04-17T03:45:26.238Z,7.81
2023-04-17T03:46:29.463Z,7.81
2023-04-17T03:48:04.200Z,7.81
2023-04-17T03:49:07.239Z,7.81
2023-04-17T03:50:10.448Z,7.81
2023-04-17T03:51:45.146Z,7.81
2023-04-17T03:52:48.123Z,7.81
2023-04-17T03:53:51.026Z,7.75
2023-04-17T03:55:25.730Z,7.81
2023-04-17T03:56:28.618Z,7.81
2023-04-17T03:57:31.410Z,7.81
2023-04-17T03:59:05.880Z,7.81
2023-04-17T04:00:12.508Z,7.81
2023-04-17T04:01:15.226Z,7.81
2023-04-17T04:02:21.051Z,7.81
2023-04-17T04:03:57.508Z,7.81
2023-04-17T04:05:42.882Z,7.81
2023-04-17T04:06:45.881Z,7.81
2023-04-17T04:07:48.842Z,7.81
2023-04-17T04:09:23.534Z,7.88
2023-04-17T04:10:26.679Z,7.88
2023-04-17T04:11:29.481Z,7.88
2023-04-17T04:13:04.244Z,7.94
2023-04-17T04:14:07.088Z,7.94
2023-04-17T04:15:09.786Z,7.94
2023-04-17T04:16:44.417Z,7.94
2023-04-17T04:17:47.253Z,7.94
2023-04-17T04:18:50.295Z,7.94
2023-04-17T04:20:25.569Z,7.88
2023-04-17T04:21:28.360Z,7.88
2023-04-17T04:22:31.259Z,7.88
2023-04-17T04:24:05.883Z,7.88
2023-04-17T04:25:09.282Z,7.88
2023-04-17T04:26:12.117Z,7.88
2023-04-17T04:27:46.709Z,7.88
2023-04-17T04:28:49.568Z,7.88
2023-04-17T04:29:54.525Z,7.88
2023-04-17T04:31:29.341Z,7.88
2023-04-17T04:32:32.525Z,7.88
2023-04-17T04:33:35.852Z,7.88
2023-04-17T04:35:10.363Z,7.88
2023-04-17T04:36:13.494Z,7.88
2023-04-17T04:37:17.012Z,7.88
2023-04-17T04:38:51.801Z,7.88
2023-04-17T04:39:54.779Z,7.88
2023-04-17T04:40:57.671Z,7.88
2023-04-17T04:42:32.363Z,7.88
2023-04-17T04:43:35.199Z,7.88
2023-04-17T04:44:38.082Z,7.88
2023-04-17T04:46:12.512Z,7.94
2023-04-17T04:47:15.631Z,7.94
2023-04-17T04:48:18.598Z,7.88
2023-04-17T04:49:55.288Z,7.88
2023-04-17T04:50:58.072Z,7.88
2023-04-17T04:52:01.009Z,7.88
2023-04-17T04:53:35.749Z,7.94
2023-04-17T04:54:38.639Z,7.94
2023-04-17T04:55:41.578Z,7.94
2023-04-17T04:57:16.404Z,7.94
2023-04-17T04:58:19.412Z,7.94
2023-04-17T04:59:22.296Z,7.94
2023-04-17T05:01:15.186Z,7.94
2023-04-17T05:02:19.180Z,7.94
2023-04-17T05:03:55.246Z,7.94
2023-04-17T05:04:59.226Z,7.94
2023-04-17T05:06:02.446Z,7.94
2023-04-17T05:07:36.986Z,7.94
2023-04-17T05:08:39.937Z,7.94
2023-04-17T05:09:42.788Z,7.94
2023-04-17T05:11:17.438Z,8.00
2023-04-17T05:12:20.461Z,8.00
2023-04-17T05:13:23.361Z,8.00
2023-04-17T05:14:58.062Z,8.00
2023-04-17T05:16:01.959Z,8.00
2023-04-17T05:17:05.426Z,8.00
2023-04-17T05:18:40.484Z,8.00
2023-04-17T05:19:43.279Z,8.00
2023-04-17T05:20:46.031Z,8.00
2023-04-17T05:22:20.543Z,8.00
2023-04-17T05:23:23.451Z,8.00
2023-04-17T05:24:26.240Z,8.00
2023-04-17T05:26:00.844Z,8.00
2023-04-17T05:27:03.836Z,8.06
2023-04-17T05:28:06.897Z,8.06
2023-04-17T05:29:45.052Z,8.06
2023-04-17T05:30:47.987Z,8.06
2023-04-17T05:31:51.218Z,8.06
2023-04-17T05:33:26.711Z,8.06
2023-04-17T05:34:29.536Z,8.06
2023-04-17T05:35:32.405Z,8.06
2023-04-17T05:37:08.575Z,8.00
2023-04-17T05:38:11.340Z,8.00
2023-04-17T05:39:14.076Z,8.00
2023-04-17T05:40:48.591Z,8.00
2023-04-17T05:41:51.726Z,8.00
2023-04-17T05:42:54.611Z,8.00
2023-04-17T05:44:29.306Z,8.00
2023-04-17T05:45:32.446Z,8.00
2023-04-17T05:46:35.803Z,8.00
2023-04-17T05:48:10.408Z,8.00
2023-04-17T05:49:13.368Z,8.00
2023-04-17T05:50:16.621Z,8.00
2023-04-17T05:51:51.319Z,8.00
2023-04-17T05:52:54.045Z,8.00
2023-04-17T05:53:56.798Z,8.06
2023-04-17T05:55:31.338Z,8.06
2023-04-17T05:56:34.042Z,8.06
2023-04-17T05:57:36.942Z,8.06
2023-04-17T05:59:23.218Z,8.06
2023-04-17T06:01:13.900Z,8.06
2023-04-17T06:02:16.945Z,8.06
2023-04-17T06:03:54.290Z,8.06
2023-04-17T06:05:02.423Z,8.06
2023-04-17T06:06:06.930Z,8.06
2023-04-17T06:07:42.249Z,8.06
2023-04-17T06:08:45.242Z,8.06
2023-04-17T06:09:48.209Z,8.13
2023-04-17T06:11:22.845Z,8.13
2023-04-17T06:12:25.653Z,8.13
2023-04-17T06:13:28.479Z,8.13
2023-04-17T06:15:03.172Z,8.13
2023-04-17T06:16:06.427Z,8.19
2023-04-17T06:17:09.766Z,8.13
2023-04-17T06:18:45.092Z,8.13
2023-04-17T06:19:48.531Z,8.13
2023-04-17T06:20:51.453Z,8.19
2023-04-17T06:22:26.134Z,8.19
2023-04-17T06:23:29.217Z,8.19
2023-04-17T06:24:32.136Z,8.19
2023-04-17T06:26:06.723Z,8.25
2023-04-17T06:27:09.917Z,8.25
2023-04-17T06:28:15.569Z,8.25
2023-04-17T06:29:50.128Z,8.25
2023-04-17T06:30:53.026Z,8.25
2023-04-17T06:31:56.375Z,8.25
2023-04-17T06:33:31.245Z,8.31
2023-04-17T06:34:34.080Z,8.31
2023-04-17T06:35:56.279Z,8.38
2023-04-17T06:37:31.077Z,8.38
2023-04-17T06:38:34.064Z,8.38
2023-04-17T06:39:36.951Z,8.38
2023-04-17T06:41:11.725Z,8.38
2023-04-17T06:42:14.540Z,8.38
2023-04-17T06:43:17.326Z,8.38
2023-04-17T06:44:51.834Z,8.44
2023-04-17T06:45:54.674Z,8.44
2023-04-17T06:46:57.782Z,8.44
2023-04-17T06:48:32.554Z,8.44
2023-04-17T06:49:35.322Z,8.44
2023-04-17T06:50:38.288Z,8.44
2023-04-17T06:52:12.995Z,8.44
2023-04-17T06:53:15.905Z,8.44
2023-04-17T06:54:18.817Z,8.44
2023-04-17T06:55:53.814Z,8.50
2023-04-17T06:56:56.699Z,8.50
2023-04-17T06:57:59.638Z,8.50
2023-04-17T06:59:34.372Z,8.50
2023-04-17T07:00:12.511Z,8.50
2023-04-17T07:01:15.215Z,8.56
2023-04-17T07:02:18.498Z,8.56
2023-04-17T07:03:54.979Z,8.56
2023-04-17T07:04:58.936Z,8.56
2023-04-17T07:06:01.905Z,8.56
2023-04-17T07:07:36.567Z,8.56
2023-04-17T07:08:39.451Z,8.63
2023-04-17T07:09:42.286Z,8.63
2023-04-17T07:11:17.100Z,8.63
2023-04-17T07:12:20.027Z,8.63
2023-04-17T07:13:22.962Z,8.63
2023-04-17T07:14:57.698Z,8.69
2023-04-17T07:16:00.977Z,8.69
2023-04-17T07:17:04.393Z,8.69
2023-04-17T07:18:39.120Z,8.69
2023-04-17T07:19:41.905Z,8.69
2023-04-17T07:20:44.757Z,8.69
2023-04-17T07:22:19.244Z,8.75
2023-04-17T07:23:24.592Z,8.75
2023-04-17T07:24:27.412Z,8.81
2023-04-17T07:26:02.208Z,8.81
2023-04-17T07:27:05.158Z,8.88
2023-04-17T07:28:08.089Z,8.88
2023-04-17T07:29:42.814Z,8.88
2023-04-17T07:30:45.665Z,8.94
2023-04-17T07:31:49.005Z,8.88
2023-04-17T07:33:24.152Z,8.88
2023-04-17T07:34:28.624Z,8.88
2023-04-17T07:35:31.718Z,8.88
2023-04-17T07:37:06.256Z,8.88
2023-04-17T07:38:09.128Z,8.88
2023-04-17T07:39:15.676Z,8.88
2023-04-17T07:40:50.631Z,8.88
2023-04-17T07:41:53.581Z,8.94
2023-04-17T07:42:56.513Z,8.94
2023-04-17T07:44:31.292Z,8.94
2023-04-17T07:45:34.231Z,9.00
2023-04-17T07:46:39.375Z,9.00
2023-04-17T07:48:14.754Z,9.00
2023-04-17T07:49:18.048Z,9.06
2023-04-17T07:50:21.402Z,9.06
2023-04-17T07:51:55.997Z,9.06
2023-04-17T07:52:58.869Z,9.13
2023-04-17T07:54:01.640Z,9.13
2023-04-17T07:55:36.391Z,9.19
2023-04-17T07:56:39.243Z,9.19
2023-04-17T07:57:42.076Z,9.19
2023-04-17T07:59:16.744Z,9.25
2023-04-17T08:01:15.028Z,9.38
2023-04-17T08:02:19.532Z,9.38
2023-04-17T08:03:57.818Z,9.50
2023-04-17T08:05:03.136Z,9.56
2023-04-17T08:06:07.110Z,9.63
2023-04-17T08:07:41.942Z,9.69
2023-04-17T08:08:44.756Z,9.75
2023-04-17T08:09:48.332Z,9.81
2023-04-17T08:11:22.935Z,9.88
2023-04-17T08:12:43.866Z,9.88
2023-04-17T08:13:46.609Z,9.88
2023-04-17T08:15:21.184Z,9.94
2023-04-17T08:16:25.698Z,10.00
2023-04-17T08:17:29.033Z,10.00
2023-04-17T08:19:03.977Z,10.06
2023-04-17T08:20:07.087Z,10.13
2023-04-17T08:21:10.081Z,10.19
2023-04-17T08:22:44.844Z,10.25
2023-04-17T08:23:47.894Z,10.31
2023-04-17T08:24:54.539Z,10.31
2023-04-17T08:26:29.328Z,10.38
2023-04-17T08:27:32.175Z,10.44
2023-04-17T08:28:35.194Z,10.44
2023-04-17T08:30:12.591Z,10.56
2023-04-17T08:31:17.086Z,10.63
2023-04-17T08:32:20.302Z,10.63
2023-04-17T08:34:10.349Z,10.75
2023-04-17T08:35:16.495Z,10.81
2023-04-17T08:36:19.494Z,10.81
2023-04-17T08:37:54.164Z,10.88
2023-04-17T08:38:56.982Z,10.94
2023-04-17T08:40:00.551Z,10.94
2023-04-17T08:41:35.747Z,10.88
2023-04-17T08:42:38.537Z,10.88
2023-04-17T08:43:41.389Z,10.94
2023-04-17T08:45:16.012Z,10.94
2023-04-17T08:46:19.071Z,10.94
2023-04-17T08:47:22.499Z,10.94
2023-04-17T08:48:57.664Z,11.00
2023-04-17T08:50:00.796Z,11.00
2023-04-17T08:51:04.048Z,11.00
2023-04-17T08:52:38.938Z,11.13
2023-04-17T08:53:41.734Z,11.13
2023-04-17T08:54:44.615Z,11.13
2023-04-17T08:56:21.687Z,11.13
2023-04-17T08:57:24.746Z,11.13
2023-04-17T08:58:28.735Z,11.13
2023-04-17T09:00:11.892Z,11.19
2023-04-17T09:01:14.759Z,11.13
2023-04-17T09:02:18.428Z,11.13
2023-04-17T09:03:57.946Z,11.19
2023-04-17T09:05:02.521Z,11.19
2023-04-17T09:06:05.945Z,11.19
2023-04-17T09:07:40.820Z,11.19
2023-04-17T09:08:43.957Z,11.19
2023-04-17T09:09:47.174Z,11.25
2023-04-17T09:11:22.048Z,11.31
2023-04-17T09:12:25.046Z,11.38
2023-04-17T09:13:27.989Z,11.44
2023-04-17T09:15:02.833Z,11.50
2023-04-17T09:16:05.774Z,11.56
2023-04-17T09:17:09.166Z,11.63
2023-04-17T09:18:43.835Z,11.69
2023-04-17T09:19:47.122Z,11.69
2023-04-17T09:20:50.213Z,11.69
2023-04-17T09:22:24.949Z,11.69
2023-04-17T09:23:27.722Z,11.69
2023-04-17T09:24:30.711Z,11.69
2023-04-17T09:26:05.460Z,11.75
2023-04-17T09:27:08.532Z,11.81
2023-04-17T09:28:11.534Z,11.81
2023-04-17T09:29:46.348Z,11.88
2023-04-17T09:30:49.353Z,11.94
2023-04-17T09:31:53.084Z,11.94
2023-04-17T09:33:28.058Z,12.00
2023-04-17T09:34:30.887Z,12.06
2023-04-17T09:35:33.861Z,12.06
2023-04-17T09:37:09.658Z,12.25
2023-04-17T09:38:12.554Z,12.31
2023-04-17T09:39:15.329Z,12.44
2023-04-17T09:40:50.434Z,12.56
2023-04-17T09:41:53.369Z,12.56
2023-04-17T09:42:58.984Z,12.56
2023-04-17T09:44:34.509Z,12.63
2023-04-17T09:45:37.454Z,12.63
2023-04-17T09:46:40.697Z,12.63
2023-04-17T09:48:16.074Z,12.56
2023-04-17T09:49:19.039Z,12.56
2023-04-17T09:50:21.982Z,12.56
2023-04-17T09:51:57.160Z,12.56
2023-04-17T09:53:00.056Z,12.56
2023-04-17T09:54:02.814Z,12.56
2023-04-17T09:55:38.310Z,12.63
2023-04-17T09:56:41.414Z,12.63
2023-04-17T09:57:44.738Z,12.63
2023-04-17T09:59:19.995Z,12.63
2023-04-17T10:01:14.494Z,12.56
2023-04-17T10:02:18.620Z,12.56
2023-04-17T10:03:55.511Z,12.63
2023-04-17T10:05:00.734Z,12.63
2023-04-17T10:06:03.750Z,12.69
2023-04-17T10:07:38.255Z,12.75
2023-04-17T10:08:41.084Z,12.81
2023-04-17T10:09:43.894Z,12.81
2023-04-17T10:11:18.485Z,12.88
2023-04-17T10:12:21.169Z,12.88
2023-04-17T10:13:26.366Z,12.88
2023-04-17T10:15:00.932Z,12.94
2023-04-17T10:16:03.847Z,13.00
2023-04-17T10:17:07.405Z,13.13
2023-04-17T10:18:42.403Z,13.19
2023-04-17T10:19:45.314Z,13.25
2023-04-17T10:20:48.411Z,13.25
2023-04-17T10:22:24.511Z,13.31
2023-04-17T10:23:28.063Z,13.38
2023-04-17T10:24:30.863Z,13.38
2023-04-17T10:26:05.437Z,13.38
2023-04-17T10:27:08.376Z,13.44
2023-04-17T10:28:11.082Z,13.50
2023-04-17T10:29:45.683Z,13.56
2023-04-17T10:30:48.892Z,13.56
2023-04-17T10:31:53.136Z,13.56
2023-04-17T10:33:28.646Z,13.50
2023-04-17T10:34:31.666Z,13.50
2023-04-17T10:35:36.053Z,13.50
2023-04-17T10:37:10.765Z,13.50
2023-04-17T10:38:13.825Z,13.50
2023-04-17T10:39:16.956Z,13.50
2023-04-17T10:40:51.685Z,13.56
2023-04-17T10:41:57.515Z,13.56
2023-04-17T10:43:00.438Z,13.63
2023-04-17T10:44:35.444Z,13.69
2023-04-17T10:45:38.262Z,13.69
2023-04-17T10:46:41.551Z,13.69
2023-04-17T10:48:16.151Z,13.69
2023-04-17T10:49:19.938Z,13.69
2023-04-17T10:50:22.784Z,13.75
2023-04-17T10:51:57.587Z,13.75
2023-04-17T10:53:00.487Z,13.75
2023-04-17T10:54:05.256Z,13.75
2023-04-17T10:55:39.920Z,13.75
2023-04-17T10:56:42.672Z,13.75
2023-04-17T10:57:45.948Z,13.88
2023-04-17T10:59:20.390Z,14.00
2023-04-17T11:01:15.481Z,14.13
2023-04-17T11:02:20.971Z,14.19
2023-04-17T11:03:56.628Z,14.31
2023-04-17T11:04:59.913Z,14.38
2023-04-17T11:06:03.435Z,14.38
2023-04-17T11:07:39.053Z,14.50
2023-04-17T11:08:42.086Z,14.56
2023-04-17T11:09:47.616Z,14.56
2023-04-17T11:11:30.844Z,14.63
2023-04-17T11:12:46.248Z,14.63
2023-04-17T11:13:49.258Z,14.63
2023-04-17T11:15:26.981Z,14.56
2023-04-17T11:16:30.014Z,14.56
2023-04-17T11:17:33.320Z,14.56
2023-04-17T11:19:08.624Z,14.56
2023-04-17T11:20:12.105Z,14.63
2023-04-17T11:21:14.863Z,14.75
2023-04-17T11:22:49.571Z,14.81
2023-04-17T11:23:52.469Z,14.75
2023-04-17T11:24:55.315Z,14.75
2023-04-17T11:26:30.176Z,14.75
2023-04-17T11:27:33.124Z,14.75
2023-04-17T11:28:35.980Z,14.75
2023-04-17T11:30:10.886Z,14.50
2023-04-17T11:31:14.346Z,14.50
2023-04-17T11:32:20.459Z,14.56
2023-04-17T11:33:55.693Z,14.75
2023-04-17T11:34:58.585Z,14.81
2023-04-17T11:36:01.561Z,14.94
2023-04-17T11:37:36.532Z,15.19
2023-04-17T11:38:39.604Z,15.31
2023-04-17T11:39:42.660Z,15.50
2023-04-17T11:41:17.527Z,15.50
2023-04-17T11:42:20.512Z,15.50
2023-04-17T11:43:23.343Z,15.69
2023-04-17T11:44:58.118Z,15.69
2023-04-17T11:46:02.181Z,16.06
2023-04-17T11:47:05.464Z,16.19
2023-04-17T11:48:40.376Z,16.44
2023-04-17T11:49:43.162Z,16.56
2023-04-17T11:50:46.176Z,16.56
2023-04-17T11:52:20.850Z,16.69
2023-04-17T11:53:23.635Z,16.69
2023-04-17T11:54:26.592Z,16.69
2023-04-17T11:56:01.337Z,16.50
2023-04-17T11:57:04.413Z,16.44
2023-04-17T11:58:07.341Z,16.44
2023-04-17T11:59:42.808Z,16.44
2023-04-17T12:00:12.303Z,16.44
2023-04-17T12:01:15.134Z,16.31
2023-04-17T12:02:18.276Z,16.31
2023-04-17T12:03:54.817Z,16.31
2023-04-17T12:05:00.839Z,16.31
2023-04-17T12:06:05.569Z,16.56
2023-04-17T12:07:40.172Z,16.63
2023-04-17T12:08:42.964Z,16.63
2023-04-17T12:09:46.578Z,16.69
2023-04-17T12:11:21.485Z,16.75
2023-04-17T12:12:24.298Z,16.75
2023-04-17T12:13:27.308Z,16.75
2023-04-17T12:15:02.094Z,16.69
2023-04-17T12:16:05.039Z,16.63
2023-04-17T12:17:08.719Z,16.63
2023-04-17T12:18:43.736Z,16.38
2023-04-17T12:19:46.713Z,16.38
2023-04-17T12:20:49.814Z,16.44
2023-04-17T12:22:24.529Z,16.44
2023-04-17T12:23:27.245Z,16.44
2023-04-17T12:24:30.154Z,16.44
2023-04-17T12:26:04.714Z,16.56
2023-04-17T12:27:07.467Z,16.56
2023-04-17T12:28:10.367Z,16.75
2023-04-17T12:29:45.190Z,16.81
2023-04-17T12:30:48.229Z,16.88
2023-04-17T12:31:51.567Z,17.00
2023-04-17T12:33:26.937Z,17.00
2023-04-17T12:34:29.902Z,17.06
2023-04-17T12:35:32.842Z,17.00
2023-04-17T12:37:07.910Z,16.75
2023-04-17T12:38:10.705Z,16.69
2023-04-17T12:39:13.634Z,16.69
2023-04-17T12:40:48.168Z,16.75
2023-04-17T12:41:51.081Z,16.81
2023-04-17T12:42:53.965Z,16.94
2023-04-17T12:44:28.561Z,17.19
2023-04-17T12:45:31.636Z,17.25
2023-04-17T12:46:34.906Z,17.31
2023-04-17T12:48:09.593Z,17.50
2023-04-17T12:49:13.816Z,17.56
2023-04-17T12:50:17.107Z,17.63
2023-04-17T12:51:52.859Z,17.56
2023-04-17T12:52:59.122Z,17.63
2023-04-17T12:54:02.309Z,17.63
2023-04-17T12:55:37.327Z,17.63
2023-04-17T12:56:40.841Z,17.63
2023-04-17T12:57:43.737Z,17.69
2023-04-17T12:59:18.584Z,17.75
2023-04-17T13:01:14.967Z,17.94
2023-04-17T13:02:18.854Z,18.00
2023-04-17T13:03:55.473Z,18.19
2023-04-17T13:05:01.745Z,18.25
2023-04-17T13:06:04.948Z,18.31
2023-04-17T13:07:40.120Z,18.31
2023-04-17T13:08:43.032Z,18.31
2023-04-17T13:09:46.766Z,18.25
2023-04-17T13:11:21.915Z,18.25
2023-04-17T13:12:24.776Z,18.25
2023-04-17T13:13:27.581Z,18.38
2023-04-17T13:15:02.561Z,18.44
2023-04-17T13:16:05.453Z,18.44
2023-04-17T13:18:15.102Z,18.44
2023-04-17T13:19:49.824Z,18.25
2023-04-17T13:20:52.957Z,18.06
2023-04-17T13:21:56.240Z,17.94
2023-04-17T13:23:33.680Z,17.75
2023-04-17T13:24:36.693Z,17.75
2023-04-17T13:25:39.814Z,17.75
2023-04-17T13:27:14.490Z,17.81
2023-04-17T13:28:17.411Z,17.94
2023-04-17T13:29:20.552Z,17.94
2023-04-17T13:30:55.436Z,18.00
2023-04-17T13:31:58.786Z,18.13
2023-04-17T13:33:01.882Z,18.25
2023-04-17T13:34:36.637Z,18.50
2023-04-17T13:35:39.473Z,18.75
2023-04-17T13:36:42.512Z,18.88
2023-04-17T13:38:17.166Z,18.88
2023-04-17T13:39:20.231Z,18.94
2023-04-17T13:40:23.352Z,18.69
2023-04-17T13:41:58.106Z,18.50
2023-04-17T13:43:01.129Z,18.19
2023-04-17T13:44:04.050Z,17.81
2023-04-17T13:45:39.099Z,17.75
2023-04-17T13:46:42.251Z,17.75
2023-04-17T13:47:45.277Z,17.81
2023-04-17T13:49:20.726Z,17.88
2023-04-17T13:50:23.647Z,17.94
2023-04-17T13:51:26.621Z,18.00
2023-04-17T13:53:01.325Z,18.19
2023-04-17T13:54:06.612Z,18.31
2023-04-17T13:55:09.706Z,18.44
2023-04-17T13:56:44.640Z,18.63
2023-04-17T13:57:47.717Z,18.63
2023-04-17T13:58:50.681Z,18.56
2023-04-17T14:00:12.708Z,18.44
2023-04-17T14:01:15.674Z,18.44
2023-04-17T14:02:19.449Z,18.38
2023-04-17T14:03:56.904Z,18.13
2023-04-17T14:05:02.057Z,17.94
2023-04-17T14:06:05.248Z,17.81
2023-04-17T14:07:39.972Z,17.63
2023-04-17T14:08:44.367Z,17.50
2023-04-17T14:09:47.897Z,17.38
2023-04-17T14:11:22.568Z,17.06
2023-04-17T14:12:25.567Z,16.88
2023-04-17T14:13:28.527Z,16.69
2023-04-17T14:15:03.755Z,16.56
2023-04-17T14:16:06.806Z,16.50
2023-04-17T14:17:10.245Z,16.44
2023-04-17T14:18:45.421Z,16.38
2023-04-17T14:19:58.929Z,16.44
2023-04-17T14:21:01.956Z,16.44
2023-04-17T14:22:36.796Z,16.38
2023-04-17T14:23:39.677Z,16.38
2023-04-17T14:24:42.440Z,16.38
2023-04-17T14:26:16.954Z,16.31
2023-04-17T14:27:19.999Z,16.31
2023-04-17T14:28:22.863Z,16.38
2023-04-17T14:30:00.653Z,16.44
2023-04-17T14:31:04.513Z,16.50
2023-04-17T14:32:07.999Z,16.56
2023-04-17T14:33:43.039Z,16.63
2023-04-17T14:34:46.176Z,16.69
2023-04-17T14:35:49.066Z,16.81
2023-04-17T14:37:24.057Z,17.13
2023-04-17T14:38:26.996Z,17.25
2023-04-17T14:39:31.526Z,17.44
2023-04-17T14:41:06.515Z,17.63
2023-04-17T14:42:09.815Z,17.69
2023-04-17T14:43:29.468Z,17.88
2023-04-17T14:45:04.330Z,18.00
2023-04-17T14:46:07.281Z,18.13
2023-04-17T14:47:10.962Z,18.19
2023-04-17T14:48:55.384Z,18.38
2023-04-17T14:49:59.344Z,18.50
2023-04-17T14:51:02.320Z,18.63
2023-04-17T14:52:37.889Z,18.69
2023-04-17T14:53:40.702Z,18.75
2023-04-17T14:54:44.840Z,18.81
2023-04-17T14:56:19.306Z,18.88
2023-04-17T14:57:22.311Z,18.88
2023-04-17T14:58:25.426Z,18.81
2023-04-17T15:00:00.292Z,18.63
2023-04-17T15:00:12.191Z,18.63
2023-04-17T15:01:15.197Z,18.38
2023-04-17T15:02:18.465Z,18.25
2023-04-17T15:03:54.893Z,18.00
2023-04-17T15:05:00.374Z,17.81
2023-04-17T15:06:03.523Z,17.69
2023-04-17T15:07:38.564Z,17.44
2023-04-17T15:08:41.544Z,17.38
2023-04-17T15:09:44.558Z,17.38
2023-04-17T15:11:26.468Z,17.31
2023-04-17T15:12:29.375Z,17.31
2023-04-17T15:13:32.300Z,17.25
2023-04-17T15:15:06.953Z,17.06
2023-04-17T15:16:10.066Z,16.94
2023-04-17T15:17:13.568Z,16.88
2023-04-17T15:18:48.306Z,16.81
2023-04-17T15:19:51.536Z,16.69
2023-04-17T15:20:55.053Z,16.63
2023-04-17T15:22:29.825Z,16.50
2023-04-17T15:23:32.780Z,16.50
2023-04-17T15:24:35.844Z,16.31
2023-04-17T15:26:10.579Z,16.19
2023-04-17T15:27:13.501Z,16.13
2023-04-17T15:28:16.408Z,16.06
2023-04-17T15:29:51.044Z,16.06
2023-04-17T15:30:53.882Z,16.00
2023-04-17T15:31:56.902Z,16.00
2023-04-17T15:33:32.252Z,16.00
2023-04-17T15:34:35.337Z,16.06
2023-04-17T15:35:38.236Z,16.13
2023-04-17T15:37:13.138Z,16.19
2023-04-17T15:38:16.053Z,16.25
2023-04-17T15:39:18.942Z,16.38
2023-04-17T15:40:53.841Z,16.56
2023-04-17T15:41:57.309Z,16.69
2023-04-17T15:43:00.306Z,16.75
2023-04-17T15:44:35.039Z,16.94
2023-04-17T15:45:37.995Z,16.94
2023-04-17T15:46:41.265Z,16.94
2023-04-17T15:48:15.949Z,17.06
2023-04-17T15:49:20.489Z,17.00
2023-04-17T15:50:23.892Z,17.00
2023-04-17T15:51:58.710Z,17.13
2023-04-17T15:53:01.526Z,17.19
2023-04-17T15:54:05.137Z,17.19
2023-04-17T15:55:39.881Z,17.31
2023-04-17T15:56:42.725Z,17.38
2023-04-17T15:57:45.709Z,17.38
2023-04-17T15:59:20.320Z,17.44
2023-04-17T16:01:14.891Z,17.50
2023-04-17T16:02:18.420Z,17.56
2023-04-17T16:03:55.195Z,17.56
2023-04-17T16:04:59.517Z,17.50
2023-04-17T16:05:40.624Z,17.44
2023-04-17T16:06:45.827Z,17.31
2023-04-17T16:07:48.739Z,17.13
2023-04-17T16:09:24.008Z,17.00
2023-04-17T16:10:27.046Z,16.75
2023-04-17T16:11:30.080Z,16.69